createdAt,value
2022-09-07T00:00:37.829Z,17.66
2022-09-07T00:01:37.816Z,17.53
2022-09-07T00:02:45.501Z,17.64
2022-09-07T00:03:37.785Z,17.66
2022-09-07T00:04:37.810Z,17.69
2022-09-07T00:05:37.750Z,17.59
2022-09-07T00:06:37.751Z,17.55
2022-09-07T00:07:37.719Z,17.53
2022-09-07T00:08:37.686Z,17.50
2022-09-07T00:09:37.667Z,17.36
2022-09-07T00:10:37.642Z,17.41
2022-09-07T00:11:37.624Z,17.41
2022-09-07T00:12:37.619Z,17.43
2022-09-07T00:13:37.592Z,17.47
2022-09-07T00:14:37.605Z,17.43
2022-09-07T00:15:37.564Z,17.32
2022-09-07T00:16:37.597Z,17.35
2022-09-07T00:17:37.540Z,17.36
2022-09-07T00:18:38.280Z,17.32
2022-09-07T00:19:37.480Z,17.29
2022-09-07T00:20:37.477Z,17.22
2022-09-07T00:21:37.444Z,17.22
2022-09-07T00:22:37.433Z,17.18
2022-09-07T00:23:37.401Z,17.22
2022-09-07T00:24:37.401Z,17.17
2022-09-07T00:25:37.360Z,17.13
2022-09-07T00:26:37.340Z,17.17
2022-09-07T00:27:37.327Z,17.11
2022-09-07T00:28:37.328Z,17.14
2022-09-07T00:29:37.305Z,17.04
2022-09-07T00:30:37.285Z,17.10
2022-09-07T00:31:37.288Z,17.14
2022-09-07T00:32:37.239Z,17.13
2022-09-07T00:33:37.217Z,17.11
2022-09-07T00:34:37.199Z,17.08
2022-09-07T00:35:37.173Z,17.13
2022-09-07T00:36:37.230Z,17.20
2022-09-07T00:37:37.148Z,17.14
2022-09-07T00:38:37.143Z,17.20
2022-09-07T00:39:37.148Z,17.15
2022-09-07T00:40:37.088Z,17.26
2022-09-07T00:41:37.063Z,17.29
2022-09-07T00:42:37.059Z,17.35
2022-09-07T00:43:37.054Z,17.36
2022-09-07T00:44:37.005Z,17.26
2022-09-07T00:45:36.990Z,17.33
2022-09-07T00:46:37.058Z,17.47
2022-09-07T00:47:36.955Z,17.47
2022-09-07T00:48:36.940Z,17.43
2022-09-07T00:49:36.917Z,17.40
2022-09-07T00:50:36.889Z,17.43
2022-09-07T00:51:36.872Z,17.41
2022-09-07T00:52:36.852Z,17.40
2022-09-07T00:53:36.835Z,17.38
2022-09-07T00:54:36.814Z,17.51
2022-09-07T00:55:36.793Z,17.53
2022-09-07T00:56:36.775Z,17.62
2022-09-07T00:57:36.764Z,17.59
2022-09-07T00:58:36.738Z,17.69
2022-09-07T00:59:36.727Z,17.70
2022-09-07T01:00:36.732Z,17.78
2022-09-07T01:01:36.833Z,17.84
2022-09-07T01:02:36.829Z,17.91
2022-09-07T01:03:36.648Z,17.87
2022-09-07T01:04:36.628Z,17.94
2022-09-07T01:05:36.610Z,17.94
2022-09-07T01:06:36.597Z,17.94
2022-09-07T01:07:36.585Z,17.91
2022-09-07T01:08:36.562Z,18.03
2022-09-07T01:09:36.534Z,18.03
2022-09-07T01:10:36.552Z,18.10
2022-09-07T01:11:36.501Z,18.27
2022-09-07T01:12:36.478Z,18.24
2022-09-07T01:13:36.465Z,18.31
2022-09-07T01:14:36.441Z,18.25
2022-09-07T01:15:36.479Z,18.37
2022-09-07T01:16:36.405Z,18.36
2022-09-07T01:17:36.389Z,18.39
2022-09-07T01:18:36.371Z,18.34
2022-09-07T01:19:36.378Z,18.31
2022-09-07T01:20:36.379Z,18.31
2022-09-07T01:21:36.328Z,18.25
2022-09-07T01:22:36.327Z,18.25
2022-09-07T01:23:36.290Z,18.24
2022-09-07T01:24:36.266Z,18.24
2022-09-07T01:25:36.303Z,18.13
2022-09-07T01:26:36.240Z,18.07
2022-09-07T01:27:36.211Z,18.07
2022-09-07T01:28:36.193Z,18.03
2022-09-07T01:29:36.183Z,18.03
2022-09-07T01:30:36.157Z,17.97
2022-09-07T01:31:36.188Z,18.00
2022-09-07T01:32:36.122Z,17.99
2022-09-07T01:33:36.098Z,18.06
2022-09-07T01:34:36.083Z,17.94
2022-09-07T01:35:36.059Z,17.95
2022-09-07T01:36:36.053Z,17.87
2022-09-07T01:37:36.033Z,17.85
2022-09-07T01:38:36.006Z,17.94
2022-09-07T01:39:36.078Z,17.88
2022-09-07T01:40:35.971Z,17.85
2022-09-07T01:41:35.958Z,17.87
2022-09-07T01:42:35.936Z,17.88
2022-09-07T01:43:35.918Z,17.79
2022-09-07T01:44:35.915Z,17.69
2022-09-07T01:45:35.875Z,17.67
2022-09-07T01:46:35.904Z,17.70
2022-09-07T01:47:35.844Z,17.74
2022-09-07T01:48:35.824Z,17.73
2022-09-07T01:49:35.806Z,17.73
2022-09-07T01:50:35.787Z,17.69
2022-09-07T01:51:35.771Z,17.74
2022-09-07T01:52:35.756Z,17.71
2022-09-07T01:53:35.751Z,17.79
2022-09-07T01:54:35.708Z,17.91
2022-09-07T01:55:35.708Z,17.81
2022-09-07T01:56:35.711Z,17.79
2022-09-07T01:57:35.657Z,17.76
2022-09-07T01:58:35.633Z,17.82
2022-09-07T01:59:35.619Z,17.82
2022-09-07T02:00:35.638Z,17.82
2022-09-07T02:01:35.633Z,17.88
2022-09-07T02:02:35.609Z,17.82
2022-09-07T02:03:36.196Z,17.84
2022-09-07T02:04:35.534Z,17.81
2022-09-07T02:05:35.508Z,17.88
2022-09-07T02:06:35.518Z,17.94
2022-09-07T02:07:35.479Z,17.92
2022-09-07T02:08:35.467Z,17.92
2022-09-07T02:09:35.440Z,17.84
2022-09-07T02:10:35.415Z,17.88
2022-09-07T02:11:35.401Z,17.87
2022-09-07T02:12:35.382Z,17.87
2022-09-07T02:13:35.366Z,17.95
2022-09-07T02:14:35.345Z,18.00
2022-09-07T02:15:35.368Z,18.03
2022-09-07T02:16:35.312Z,18.07
2022-09-07T02:17:35.301Z,18.02
2022-09-07T02:18:35.274Z,18.00
2022-09-07T02:19:35.259Z,18.04
2022-09-07T02:20:35.237Z,18.03
2022-09-07T02:21:35.218Z,18.02
2022-09-07T02:22:35.202Z,17.97
2022-09-07T02:23:35.173Z,17.92
2022-09-07T02:24:35.172Z,17.87
2022-09-07T02:25:35.142Z,17.91
2022-09-07T02:26:35.118Z,17.95
2022-09-07T02:27:35.101Z,18.00
2022-09-07T02:28:35.084Z,17.85
2022-09-07T02:29:35.066Z,17.82
2022-09-07T02:30:35.074Z,18.02
2022-09-07T02:31:35.144Z,17.95
2022-09-07T02:32:35.032Z,18.03
2022-09-07T02:33:34.997Z,18.00
2022-09-07T02:34:34.964Z,18.02
2022-09-07T02:35:34.979Z,17.99
2022-09-07T02:36:34.955Z,17.97
2022-09-07T02:37:34.916Z,18.06
2022-09-07T02:38:34.897Z,18.02
2022-09-07T02:39:34.937Z,18.03
2022-09-07T02:40:34.864Z,18.02
2022-09-07T02:41:34.842Z,17.99
2022-09-07T02:42:34.820Z,17.85
2022-09-07T02:43:34.838Z,17.94
2022-09-07T02:44:34.828Z,17.94
2022-09-07T02:45:34.769Z,17.92
2022-09-07T02:46:34.798Z,17.87
2022-09-07T02:47:34.758Z,17.88
2022-09-07T02:48:34.714Z,17.88
2022-09-07T02:49:34.688Z,17.79
2022-09-07T02:50:34.673Z,17.78
2022-09-07T02:51:34.685Z,17.81
2022-09-07T02:52:34.654Z,17.82
2022-09-07T02:53:34.645Z,17.91
2022-09-07T02:54:34.593Z,17.94
2022-09-07T02:55:34.576Z,17.82
2022-09-07T02:56:34.565Z,17.88
2022-09-07T02:57:34.564Z,17.94
2022-09-07T02:58:34.548Z,17.88
2022-09-07T02:59:34.498Z,17.78
2022-09-07T03:00:34.477Z,17.74
2022-09-07T03:01:34.556Z,17.74
2022-09-07T03:02:34.517Z,17.78
2022-09-07T03:03:34.422Z,17.66
2022-09-07T03:04:34.413Z,17.70
2022-09-07T03:05:34.390Z,17.70
2022-09-07T03:06:34.379Z,17.78
2022-09-07T03:07:35.946Z,17.79
2022-09-07T03:08:34.338Z,17.82
2022-09-07T03:09:34.318Z,17.89
2022-09-07T03:10:34.289Z,17.99
2022-09-07T03:11:34.285Z,18.03
2022-09-07T03:12:34.261Z,17.92
2022-09-07T03:13:34.241Z,18.03
2022-09-07T03:14:34.226Z,18.07
2022-09-07T03:15:34.259Z,18.13
2022-09-07T03:16:34.175Z,18.24
2022-09-07T03:17:34.183Z,18.17
2022-09-07T03:18:34.147Z,18.04
2022-09-07T03:19:34.119Z,17.87
2022-09-07T03:20:34.106Z,17.89
2022-09-07T03:21:34.087Z,17.87
2022-09-07T03:22:34.075Z,17.91
2022-09-07T03:23:34.056Z,17.91
2022-09-07T03:24:34.035Z,17.87
2022-09-07T03:25:34.013Z,17.85
2022-09-07T03:26:33.993Z,17.88
2022-09-07T03:27:33.972Z,17.85
2022-09-07T03:28:33.980Z,17.89
2022-09-07T03:29:33.933Z,17.87
2022-09-07T03:30:33.972Z,17.95
2022-09-07T03:31:33.895Z,17.95
2022-09-07T03:32:33.872Z,18.04
2022-09-07T03:33:33.853Z,18.02
2022-09-07T03:34:33.899Z,17.95
2022-09-07T03:35:33.828Z,18.04
2022-09-07T03:36:33.797Z,18.06
2022-09-07T03:37:33.812Z,18.03
2022-09-07T03:38:33.770Z,18.03
2022-09-07T03:39:33.831Z,18.02
2022-09-07T03:40:33.734Z,18.02
2022-09-07T03:41:33.704Z,18.07
2022-09-07T03:42:33.690Z,18.10
2022-09-07T03:43:33.672Z,18.13
2022-09-07T03:44:33.644Z,18.25
2022-09-07T03:45:33.623Z,18.25
2022-09-07T03:46:33.724Z,18.33
2022-09-07T03:47:33.581Z,18.22
2022-09-07T03:48:33.572Z,18.22
2022-09-07T03:49:33.566Z,18.28
2022-09-07T03:50:33.535Z,18.31
2022-09-07T03:51:33.519Z,18.31
2022-09-07T03:52:33.501Z,18.39
2022-09-07T03:53:33.484Z,18.28
2022-09-07T03:54:36.661Z,18.28
2022-09-07T03:55:33.447Z,18.25
2022-09-07T03:56:33.424Z,18.19
2022-09-07T03:57:33.406Z,18.28
2022-09-07T03:58:33.405Z,18.28
2022-09-07T03:59:33.360Z,18.31
2022-09-07T04:00:33.339Z,18.36
2022-09-07T04:01:33.428Z,18.28
2022-09-07T04:02:33.461Z,18.29
2022-09-07T04:03:33.294Z,18.36
2022-09-07T04:04:33.275Z,18.31
2022-09-07T04:05:33.254Z,18.19
2022-09-07T04:06:33.249Z,18.17
2022-09-07T04:07:33.223Z,18.27
2022-09-07T04:08:33.188Z,18.25
2022-09-07T04:09:33.181Z,18.25
2022-09-07T04:10:33.156Z,18.33
2022-09-07T04:11:33.153Z,18.28
2022-09-07T04:12:33.207Z,18.36
2022-09-07T04:13:33.117Z,18.36
2022-09-07T04:14:33.147Z,18.28
2022-09-07T04:15:33.097Z,18.19
2022-09-07T04:16:33.128Z,18.21
2022-09-07T04:17:33.027Z,18.13
2022-09-07T04:18:33.009Z,18.13
2022-09-07T04:19:33.003Z,18.15
2022-09-07T04:20:32.973Z,18.13
2022-09-07T04:21:32.957Z,18.06
2022-09-07T04:22:32.931Z,18.07
2022-09-07T04:23:32.908Z,18.02
2022-09-07T04:24:32.937Z,18.00
2022-09-07T04:25:32.883Z,18.06
2022-09-07T04:26:32.864Z,18.28
2022-09-07T04:27:32.843Z,18.33
2022-09-07T04:28:32.809Z,18.31
2022-09-07T04:29:32.790Z,18.33
2022-09-07T04:30:32.846Z,18.31
2022-09-07T04:31:32.764Z,18.29
2022-09-07T04:32:32.736Z,18.33
2022-09-07T04:33:32.743Z,18.24
2022-09-07T04:34:32.747Z,18.22
2022-09-07T04:35:32.676Z,18.39
2022-09-07T04:36:32.696Z,18.25
2022-09-07T04:37:32.638Z,18.21
2022-09-07T04:38:32.719Z,18.18
2022-09-07T04:39:32.643Z,18.24
2022-09-07T04:40:32.602Z,18.13
2022-09-07T04:41:32.591Z,18.09
2022-09-07T04:42:32.554Z,18.04
2022-09-07T04:43:32.527Z,18.03
2022-09-07T04:44:32.515Z,17.99
2022-09-07T04:45:32.497Z,17.85
2022-09-07T04:46:32.473Z,17.88
2022-09-07T04:47:32.592Z,17.87
2022-09-07T04:48:32.434Z,17.92
2022-09-07T04:49:32.415Z,17.82
2022-09-07T04:50:32.413Z,17.81
2022-09-07T04:51:32.378Z,17.88
2022-09-07T04:52:32.354Z,17.84
2022-09-07T04:53:32.375Z,17.78
2022-09-07T04:54:32.326Z,17.73
2022-09-07T04:55:32.298Z,17.81
2022-09-07T04:56:32.320Z,17.74
2022-09-07T04:57:32.268Z,17.71
2022-09-07T04:58:32.283Z,17.66
2022-09-07T04:59:32.221Z,17.67
2022-09-07T05:00:32.301Z,17.64
2022-09-07T05:01:32.238Z,17.71
2022-09-07T05:02:32.273Z,17.69
2022-09-07T05:03:32.143Z,17.64
2022-09-07T05:04:32.129Z,17.66
2022-09-07T05:05:32.113Z,17.67
2022-09-07T05:06:32.096Z,17.74
2022-09-07T05:07:32.069Z,17.81
2022-09-07T05:08:32.080Z,17.85
2022-09-07T05:09:32.026Z,17.84
2022-09-07T05:10:32.004Z,17.84
2022-09-07T05:11:32.017Z,17.92
2022-09-07T05:12:31.999Z,17.91
2022-09-07T05:13:31.978Z,17.87
2022-09-07T05:14:32.041Z,17.95
2022-09-07T05:15:31.909Z,17.89
2022-09-07T05:16:32.017Z,17.89
2022-09-07T05:17:31.929Z,17.94
2022-09-07T05:18:31.856Z,17.99
2022-09-07T05:19:32.026Z,18.03
2022-09-07T05:20:31.815Z,18.03
2022-09-07T05:21:31.855Z,18.02
2022-09-07T05:22:31.793Z,17.97
2022-09-07T05:23:31.754Z,17.94
2022-09-07T05:24:31.787Z,17.99
2022-09-07T05:25:31.785Z,17.92
2022-09-07T05:26:31.712Z,17.94
2022-09-07T05:27:31.680Z,17.92
2022-09-07T05:28:31.991Z,17.91
2022-09-07T05:31:31.625Z,17.82
2022-09-07T05:32:31.594Z,17.84
2022-09-07T05:34:32.034Z,17.84
2022-09-07T05:35:31.547Z,17.74
2022-09-07T05:36:31.515Z,17.85
2022-09-07T05:37:31.503Z,17.82
2022-09-07T05:38:31.650Z,17.82
2022-09-07T05:39:31.511Z,17.74
2022-09-07T05:40:31.429Z,17.73
2022-09-07T05:41:31.421Z,17.66
2022-09-07T05:42:31.398Z,17.64
2022-09-07T05:43:31.384Z,17.82
2022-09-07T05:44:46.808Z,17.91
2022-09-07T05:45:31.468Z,17.92
2022-09-07T05:46:31.314Z,17.88
2022-09-07T05:47:31.297Z,17.81
2022-09-07T05:48:31.376Z,17.84
2022-09-07T05:49:31.271Z,17.74
2022-09-07T05:50:31.275Z,17.79
2022-09-07T05:51:31.226Z,17.87
2022-09-07T05:52:31.237Z,17.89
2022-09-07T05:53:31.200Z,17.85
2022-09-07T05:54:31.174Z,17.92
2022-09-07T05:55:31.165Z,17.88
2022-09-07T05:56:31.129Z,17.89
2022-09-07T05:57:31.118Z,17.94
2022-09-07T05:58:31.146Z,17.87
2022-09-07T05:59:31.079Z,17.88
2022-09-07T06:00:31.056Z,17.84
2022-09-07T06:01:31.049Z,17.76
2022-09-07T06:02:31.154Z,17.79
2022-09-07T06:03:31.061Z,17.85
2022-09-07T06:04:30.986Z,17.87
2022-09-07T06:05:30.959Z,17.91
2022-09-07T06:06:30.940Z,17.89
2022-09-07T06:07:30.916Z,17.92
2022-09-07T06:08:30.978Z,17.91
2022-09-07T06:09:30.915Z,17.88
2022-09-07T06:10:46.356Z,17.89
2022-09-07T06:11:30.853Z,17.89
2022-09-07T06:12:30.852Z,17.87
2022-09-07T06:13:30.912Z,17.99
2022-09-07T06:14:30.801Z,17.97
2022-09-07T06:15:30.769Z,18.12
2022-09-07T06:16:30.803Z,18.28
2022-09-07T06:17:30.734Z,18.43
2022-09-07T06:18:30.718Z,18.59
2022-09-07T06:19:30.701Z,18.49
2022-09-07T06:20:30.672Z,18.68
2022-09-07T06:21:30.660Z,18.80
2022-09-07T06:22:31.295Z,18.91
2022-09-07T06:23:30.816Z,18.98
2022-09-07T06:24:30.605Z,19.06
2022-09-07T06:25:30.585Z,19.15
2022-09-07T06:26:30.560Z,19.18
2022-09-07T06:27:30.650Z,19.24
2022-09-07T06:28:30.521Z,19.25
2022-09-07T06:29:30.585Z,19.33
2022-09-07T06:30:30.493Z,19.38
2022-09-07T06:31:30.721Z,19.46
2022-09-07T06:32:46.080Z,19.51
2022-09-07T06:33:30.445Z,19.60
2022-09-07T06:34:30.426Z,19.73
2022-09-07T06:35:30.398Z,19.69
2022-09-07T06:36:30.381Z,19.70
2022-09-07T06:37:30.356Z,19.76
2022-09-07T06:38:31.919Z,19.97
2022-09-07T06:39:30.381Z,20.09
2022-09-07T06:40:30.354Z,20.18
2022-09-07T06:42:30.267Z,20.65
2022-09-07T06:43:30.462Z,20.91
2022-09-07T06:44:30.286Z,21.41
2022-09-07T06:45:30.305Z,21.63
2022-09-07T06:47:30.192Z,21.78
2022-09-07T06:48:30.421Z,21.59
2022-09-07T06:49:30.138Z,21.50
2022-09-07T06:50:30.124Z,21.51
2022-09-07T06:51:30.605Z,21.48
2022-09-07T06:55:30.044Z,21.21
2022-09-07T06:56:30.026Z,21.20
2022-09-07T06:57:30.007Z,21.05
2022-09-07T06:58:30.173Z,20.99
2022-09-07T06:59:29.965Z,21.02
2022-09-07T07:00:29.954Z,21.01
2022-09-07T07:01:29.958Z,20.95
2022-09-07T07:02:29.924Z,20.90
2022-09-07T07:03:29.918Z,21.01
2022-09-07T07:04:29.888Z,20.99
2022-09-07T07:05:29.873Z,21.06
2022-09-07T07:06:29.848Z,21.06
2022-09-07T07:07:29.833Z,21.08
2022-09-07T07:08:29.866Z,21.08
2022-09-07T07:09:29.796Z,21.01
2022-09-07T07:10:29.815Z,21.08
2022-09-07T07:11:29.798Z,21.16
2022-09-07T07:12:50.756Z,21.23
2022-09-07T07:13:29.732Z,21.27
2022-09-07T07:14:33.682Z,21.24
2022-09-07T07:15:29.706Z,21.17
2022-09-07T07:16:29.749Z,21.35
2022-09-07T07:17:29.662Z,21.36
2022-09-07T07:18:29.690Z,21.39
2022-09-07T07:19:29.643Z,21.48
2022-09-07T07:20:29.618Z,21.46
2022-09-07T07:21:43.007Z,21.61
2022-09-07T07:22:46.074Z,21.56
2022-09-07T07:23:29.636Z,21.63
2022-09-07T07:24:29.545Z,21.66
2022-09-07T07:25:29.546Z,21.69
2022-09-07T07:26:29.504Z,21.83
2022-09-07T07:27:29.497Z,21.94
2022-09-07T07:29:29.463Z,22.01
2022-09-07T07:30:29.447Z,22.02
2022-09-07T07:31:29.433Z,22.19
2022-09-07T07:32:29.413Z,22.12
2022-09-07T07:33:29.404Z,22.25
2022-09-07T07:34:29.488Z,22.27
2022-09-07T07:35:29.358Z,22.37
2022-09-07T07:36:29.345Z,22.43
2022-09-07T07:37:29.331Z,22.49
2022-09-07T07:40:31.372Z,22.77
2022-09-07T07:42:29.259Z,22.86
2022-09-07T07:43:29.237Z,22.99
2022-09-07T07:44:29.217Z,23.08
2022-09-07T07:46:29.236Z,23.31
2022-09-07T07:47:29.180Z,23.35
2022-09-07T07:48:29.176Z,23.50
2022-09-07T07:49:29.149Z,23.52
2022-09-07T07:50:31.077Z,23.53
2022-09-07T07:51:29.315Z,23.67
2022-09-07T07:53:44.398Z,23.80
2022-09-07T07:54:29.067Z,24.00
2022-09-07T07:55:44.732Z,23.90
2022-09-07T07:56:29.056Z,23.95
2022-09-07T07:57:29.045Z,23.98
2022-09-07T07:58:29.012Z,24.10
2022-09-07T07:59:29.005Z,24.02
2022-09-07T08:00:50.717Z,24.10
2022-09-07T08:01:29.027Z,24.23
2022-09-07T08:02:29.005Z,24.32
2022-09-07T08:03:28.949Z,24.39
2022-09-07T08:04:28.941Z,24.39
2022-09-07T08:05:28.914Z,24.44
2022-09-07T08:06:28.904Z,24.79
2022-09-07T08:07:28.888Z,25.00
2022-09-07T08:08:28.893Z,25.07
2022-09-07T08:09:28.862Z,25.35
2022-09-07T08:10:28.843Z,25.25
2022-09-07T08:11:28.846Z,25.44
2022-09-07T08:12:29.835Z,25.75
2022-09-07T08:13:28.805Z,25.97
2022-09-07T08:14:28.790Z,25.93
2022-09-07T08:15:28.780Z,25.98
2022-09-07T08:16:28.908Z,25.98
2022-09-07T08:17:28.761Z,26.15
2022-09-07T08:18:28.743Z,26.25
2022-09-07T08:19:28.731Z,26.76
2022-09-07T08:20:28.716Z,26.91
2022-09-07T08:21:28.717Z,26.43
2022-09-07T08:22:32.920Z,26.29
2022-09-07T08:23:28.703Z,26.31
2022-09-07T08:24:28.662Z,26.55
2022-09-07T08:25:28.649Z,26.79
2022-09-07T08:26:28.638Z,27.13
2022-09-07T08:27:28.625Z,27.46
2022-09-07T08:28:28.620Z,27.99
2022-09-07T08:29:32.635Z,28.16
2022-09-07T08:30:28.590Z,28.66
2022-09-07T08:31:28.685Z,28.70
2022-09-07T08:32:28.571Z,29.13
2022-09-07T08:33:28.678Z,29.28
2022-09-07T08:34:28.546Z,29.08
2022-09-07T08:35:28.538Z,29.18
2022-09-07T08:36:28.526Z,29.04
2022-09-07T08:37:28.521Z,29.19
2022-09-07T08:38:28.503Z,29.28
2022-09-07T08:39:28.521Z,28.80
2022-09-07T08:40:28.483Z,28.16
2022-09-07T08:41:28.476Z,27.88
2022-09-07T08:42:28.456Z,27.96
2022-09-07T08:43:28.446Z,28.10
2022-09-07T08:44:28.439Z,28.40
2022-09-07T08:45:28.421Z,28.17
2022-09-07T08:46:28.484Z,28.06
2022-09-07T08:47:28.401Z,28.13
2022-09-07T08:48:28.410Z,28.23
2022-09-07T08:49:28.375Z,28.13
2022-09-07T08:50:28.395Z,27.95
2022-09-07T08:51:28.351Z,28.33
2022-09-07T08:52:28.355Z,28.44
2022-09-07T08:53:28.431Z,28.90
2022-09-07T08:54:28.441Z,28.80
2022-09-07T08:55:28.314Z,28.58
2022-09-07T08:56:33.436Z,28.53
2022-09-07T08:57:28.292Z,28.38
2022-09-07T08:58:48.234Z,28.36
2022-09-07T08:59:28.277Z,28.53
2022-09-07T09:00:28.256Z,28.75
2022-09-07T09:01:31.725Z,29.06
2022-09-07T09:02:30.069Z,28.88
2022-09-07T09:03:28.997Z,28.40
2022-09-07T09:04:28.920Z,27.92
2022-09-07T09:05:28.411Z,27.69
2022-09-07T09:06:28.255Z,27.73
2022-09-07T09:07:28.170Z,28.25
2022-09-07T09:08:28.164Z,28.41
2022-09-07T09:09:28.155Z,28.14
2022-09-07T09:10:28.140Z,27.95
2022-09-07T09:11:28.124Z,27.61
2022-09-07T09:12:28.138Z,27.77
2022-09-07T09:13:28.175Z,27.91
2022-09-07T09:14:28.094Z,28.40
2022-09-07T09:15:28.081Z,28.66
2022-09-07T09:16:28.165Z,28.44
2022-09-07T09:17:28.065Z,28.66
2022-09-07T09:18:28.110Z,28.85
2022-09-07T09:19:28.031Z,28.85
2022-09-07T09:20:28.026Z,29.11
2022-09-07T09:21:28.013Z,29.45
2022-09-07T09:22:27.997Z,28.88
2022-09-07T09:23:27.986Z,28.78
2022-09-07T09:24:27.983Z,28.59
2022-09-07T09:25:27.973Z,28.73
2022-09-07T09:26:27.976Z,28.84
2022-09-07T09:27:28.000Z,29.28
2022-09-07T09:28:31.730Z,29.18
2022-09-07T09:29:27.916Z,29.40
2022-09-07T09:30:27.905Z,29.59
2022-09-07T09:31:27.927Z,29.44
2022-09-07T09:32:27.884Z,29.23
2022-09-07T09:33:27.869Z,29.16
2022-09-07T09:34:30.352Z,29.38
2022-09-07T09:35:27.867Z,29.25
2022-09-07T09:36:27.838Z,29.06
2022-09-07T09:38:27.868Z,29.19
2022-09-07T09:39:27.879Z,29.03
2022-09-07T09:40:27.850Z,29.11
2022-09-07T09:41:27.787Z,29.34
2022-09-07T09:42:27.787Z,29.86
2022-09-07T09:43:27.758Z,30.24
2022-09-07T09:44:27.749Z,30.43
2022-09-07T09:45:27.923Z,30.37
2022-09-07T09:46:27.781Z,29.81
2022-09-07T09:47:31.366Z,30.19
2022-09-07T09:48:27.744Z,30.26
2022-09-07T09:49:27.717Z,30.50
2022-09-07T09:52:29.971Z,31.15
2022-09-07T09:53:27.658Z,30.91
2022-09-07T09:54:27.669Z,29.20
2022-09-07T09:55:34.990Z,28.17
2022-09-07T09:56:27.628Z,27.62
2022-09-07T09:57:27.617Z,28.33
2022-09-07T10:00:00.306Z,28.97
2022-09-07T10:00:29.842Z,28.96
2022-09-07T10:01:28.360Z,28.50
2022-09-07T10:04:27.548Z,29.03
2022-09-07T10:05:27.526Z,29.45
2022-09-07T10:06:27.526Z,29.55
2022-09-07T10:07:27.511Z,29.49
2022-09-07T10:08:27.561Z,29.31
2022-09-07T10:09:27.485Z,29.50
2022-09-07T10:10:27.486Z,29.78
2022-09-07T10:12:05.062Z,29.90
2022-09-07T10:12:27.458Z,30.08
2022-09-07T10:13:27.449Z,30.26
2022-09-07T10:14:27.439Z,30.36
2022-09-07T10:15:27.431Z,30.56
2022-09-07T10:16:27.459Z,30.99
2022-09-07T10:17:27.417Z,31.09
2022-09-07T10:18:27.436Z,30.76
2022-09-07T10:19:27.393Z,30.91
2022-09-07T10:20:27.387Z,30.71
2022-09-07T10:21:27.376Z,30.86
2022-09-07T10:22:27.399Z,31.13
2022-09-07T10:23:27.356Z,31.48
2022-09-07T10:24:27.347Z,31.55
2022-09-07T10:25:27.334Z,31.21
2022-09-07T10:26:27.333Z,30.78
2022-09-07T10:27:27.338Z,30.33
2022-09-07T10:29:06.470Z,29.74
2022-09-07T10:29:28.670Z,29.92
2022-09-07T10:30:27.308Z,29.53
2022-09-07T10:31:27.316Z,29.01
2022-09-07T10:32:27.283Z,29.26
2022-09-07T10:33:27.276Z,29.45
2022-09-07T10:34:27.323Z,29.71
2022-09-07T10:35:27.277Z,29.10
2022-09-07T10:36:27.250Z,28.59
2022-09-07T10:37:27.247Z,28.01
2022-09-07T10:38:27.236Z,27.61
2022-09-07T10:39:27.273Z,27.62
2022-09-07T10:40:27.218Z,27.46
2022-09-07T10:41:27.219Z,27.33
2022-09-07T10:42:27.196Z,27.47
2022-09-07T10:43:27.193Z,27.67
2022-09-07T10:44:27.187Z,27.71
2022-09-07T10:45:27.180Z,27.96
2022-09-07T10:47:27.226Z,28.65
2022-09-07T10:48:27.171Z,28.59
2022-09-07T10:49:27.151Z,28.78
2022-09-07T10:50:27.130Z,28.91
2022-09-07T10:51:27.114Z,28.90
2022-09-07T10:52:27.113Z,29.23
2022-09-07T10:53:42.448Z,29.11
2022-09-07T10:54:30.916Z,28.73
2022-09-07T10:55:27.082Z,28.69
2022-09-07T10:56:27.070Z,28.44
2022-09-07T10:57:27.070Z,28.75
2022-09-07T10:59:01.477Z,29.22
2022-09-07T10:59:27.121Z,28.90
2022-09-07T11:00:27.037Z,28.72
2022-09-07T11:01:27.080Z,28.44
2022-09-07T11:02:27.106Z,28.13
2022-09-07T11:03:27.359Z,28.13
2022-09-07T11:04:26.996Z,27.94
2022-09-07T11:05:32.688Z,27.86
2022-09-07T11:06:26.988Z,27.85
2022-09-07T11:07:26.978Z,28.26
2022-09-07T11:08:26.963Z,28.65
2022-09-07T11:09:26.969Z,28.58
2022-09-07T11:10:26.947Z,28.19
2022-09-07T11:12:00.823Z,28.11
2022-09-07T11:12:28.241Z,28.29
2022-09-07T11:13:26.914Z,28.26
2022-09-07T11:14:26.921Z,28.13
2022-09-07T11:15:26.900Z,28.03
2022-09-07T11:17:26.890Z,28.72
2022-09-07T11:18:27.018Z,28.90
2022-09-07T11:19:42.293Z,29.35
2022-09-07T11:20:26.858Z,29.22
2022-09-07T11:21:56.559Z,28.53
2022-09-07T11:22:26.841Z,28.38
2022-09-07T11:23:26.827Z,28.78
2022-09-07T11:24:26.828Z,28.77
2022-09-07T11:25:30.113Z,28.40
2022-09-07T11:26:26.808Z,28.23
2022-09-07T11:27:26.801Z,27.86
2022-09-07T11:28:26.836Z,27.59
2022-09-07T11:29:29.971Z,27.66
2022-09-07T11:30:26.789Z,28.16
2022-09-07T11:31:26.805Z,28.65
2022-09-07T11:32:26.760Z,28.90
2022-09-07T11:33:26.743Z,29.15
2022-09-07T11:34:26.745Z,29.53
2022-09-07T11:35:26.731Z,29.62
2022-09-07T11:36:26.721Z,29.82
2022-09-07T11:37:26.722Z,30.24
2022-09-07T11:38:26.830Z,30.19
2022-09-07T11:39:26.779Z,30.65
2022-09-07T11:40:26.708Z,30.69
2022-09-07T11:41:26.689Z,30.81
2022-09-07T11:43:26.693Z,30.50
2022-09-07T11:44:26.681Z,30.38
2022-09-07T11:45:26.669Z,30.11
2022-09-07T11:46:26.719Z,29.56
2022-09-07T11:47:26.699Z,29.93
2022-09-07T11:48:30.477Z,29.71
2022-09-07T11:49:26.651Z,29.35
2022-09-07T11:50:26.710Z,28.84
2022-09-07T11:51:26.645Z,28.68
2022-09-07T11:52:26.645Z,28.47
2022-09-07T11:53:26.626Z,28.28
2022-09-07T11:54:26.628Z,28.01
2022-09-07T11:55:26.624Z,27.70
2022-09-07T11:56:26.609Z,27.47
2022-09-07T11:57:26.597Z,27.42
2022-09-07T11:58:26.667Z,27.38
2022-09-07T11:59:26.581Z,27.48
2022-09-07T12:00:26.571Z,27.53
2022-09-07T12:01:26.570Z,27.47
2022-09-07T12:02:42.317Z,27.66
2022-09-07T12:03:26.608Z,28.09
2022-09-07T12:04:26.602Z,28.10
2022-09-07T12:05:26.533Z,28.28
2022-09-07T12:06:26.550Z,28.69
2022-09-07T12:07:26.518Z,28.47
2022-09-07T12:08:26.588Z,28.41
2022-09-07T12:09:26.494Z,28.21
2022-09-07T12:10:26.508Z,28.59
2022-09-07T12:11:26.471Z,28.93
2022-09-07T12:12:26.482Z,28.88
2022-09-07T12:13:26.463Z,28.84
2022-09-07T12:14:26.477Z,29.35
2022-09-07T12:15:26.482Z,29.47
2022-09-07T12:16:26.438Z,29.72
2022-09-07T12:17:26.467Z,29.65
2022-09-07T12:18:26.507Z,29.33
2022-09-07T12:19:26.572Z,28.97
2022-09-07T12:20:26.585Z,29.43
2022-09-07T12:21:26.428Z,29.57
2022-09-07T12:22:26.542Z,29.96
2022-09-07T12:23:26.438Z,30.36
2022-09-07T12:24:26.519Z,30.11
2022-09-07T12:25:26.553Z,30.18
2022-09-07T12:26:26.423Z,29.70
2022-09-07T12:27:26.370Z,29.45
2022-09-07T12:28:26.356Z,29.56
2022-09-07T12:29:26.350Z,29.16
2022-09-07T12:30:26.377Z,28.78
2022-09-07T12:31:27.362Z,28.63
2022-09-07T12:33:26.324Z,28.25
2022-09-07T12:34:26.327Z,28.17
2022-09-07T12:35:26.360Z,27.95
2022-09-07T12:36:26.303Z,27.95
2022-09-07T12:37:26.293Z,27.92
2022-09-07T12:38:26.332Z,27.73
2022-09-07T12:39:26.373Z,27.74
2022-09-07T12:40:26.266Z,27.59
2022-09-07T12:41:26.262Z,27.66
2022-09-07T12:42:36.713Z,27.58
2022-09-07T12:43:27.690Z,27.41
2022-09-07T12:44:29.337Z,27.58
2022-09-07T12:45:26.247Z,27.51
2022-09-07T12:46:26.278Z,27.48
2022-09-07T12:47:26.206Z,27.94
2022-09-07T12:48:26.222Z,28.46
2022-09-07T12:49:26.185Z,28.85
2022-09-07T12:50:26.618Z,29.13
2022-09-07T12:52:26.186Z,29.44
2022-09-07T12:53:26.159Z,29.59
2022-09-07T12:54:26.153Z,29.79
2022-09-07T12:55:29.168Z,30.16
2022-09-07T12:56:26.182Z,30.34
2022-09-07T12:57:29.546Z,30.65
2022-09-07T12:58:26.117Z,30.90
2022-09-07T12:59:26.120Z,31.05
2022-09-07T13:00:26.102Z,30.54
2022-09-07T13:01:26.341Z,30.14
2022-09-07T13:02:26.179Z,29.75
2022-09-07T13:04:26.081Z,29.72
2022-09-07T13:05:26.115Z,29.89
2022-09-07T13:07:26.056Z,28.96
2022-09-07T13:08:26.060Z,28.63
2022-09-07T13:09:26.095Z,28.82
2022-09-07T13:10:26.051Z,29.26
2022-09-07T13:11:26.038Z,29.53
2022-09-07T13:14:26.015Z,29.71
2022-09-07T13:15:26.011Z,29.01
2022-09-07T13:16:26.050Z,28.73
2022-09-07T13:17:26.441Z,28.68
2022-09-07T13:18:25.984Z,28.60
2022-09-07T13:19:25.985Z,28.47
2022-09-07T13:20:25.995Z,28.32
2022-09-07T13:21:25.964Z,28.33